createdAt,value
2022-12-14T00:02:57.872Z,34.28
2022-12-14T00:06:00.875Z,33.63
2022-12-14T00:09:06.686Z,30.80
2022-12-14T00:12:10.340Z,32.72
2022-12-14T00:15:13.511Z,31.67
2022-12-14T00:18:22.243Z,30.23
2022-12-14T00:21:26.895Z,34.53
2022-12-14T00:24:31.232Z,34.70
2022-12-14T00:27:34.494Z,38.40
2022-12-14T00:30:37.414Z,31.23
2022-12-14T00:33:41.162Z,31.08
2022-12-14T00:36:44.244Z,29.95
2022-12-14T00:39:48.589Z,32.80
2022-12-14T00:42:51.514Z,29.15
2022-12-14T00:45:55.243Z,32.00
2022-12-14T00:48:58.251Z,31.88
2022-12-14T00:52:01.258Z,31.95
2022-12-14T00:55:06.815Z,28.42
2022-12-14T00:58:13.070Z,32.38
2022-12-14T01:01:16.265Z,32.92
2022-12-14T01:04:19.566Z,33.47
2022-12-14T01:07:22.609Z,32.55
2022-12-14T01:10:27.103Z,29.90
2022-12-14T01:13:30.237Z,34.38
2022-12-14T01:16:33.333Z,27.30
2022-12-14T01:19:36.336Z,30.10
2022-12-14T01:22:39.483Z,29.42
2022-12-14T01:25:43.916Z,31.43
2022-12-14T01:28:56.030Z,35.28
2022-12-14T01:31:58.981Z,32.83
2022-12-14T01:35:01.866Z,26.80
2022-12-14T01:38:04.923Z,34.03
2022-12-14T01:41:24.971Z,34.88
2022-12-14T01:44:56.616Z,35.95
2022-12-14T01:48:03.586Z,32.05
2022-12-14T01:51:07.087Z,33.35
2022-12-14T01:54:13.753Z,32.65
2022-12-14T01:57:21.545Z,31.10
2022-12-14T02:00:25.079Z,33.15
2022-12-14T02:03:33.205Z,30.00
2022-12-14T02:06:40.670Z,30.77
2022-12-14T02:09:46.014Z,29.70
2022-12-14T02:12:56.820Z,28.65
2022-12-14T02:15:59.995Z,29.25
2022-12-14T02:19:03.234Z,38.10
2022-12-14T02:22:43.825Z,30.33
2022-12-14T02:26:40.502Z,33.65
2022-12-14T02:30:08.540Z,28.70
2022-12-14T02:33:39.372Z,35.80
2022-12-14T02:36:52.872Z,28.42
2022-12-14T02:40:10.815Z,27.97
2022-12-14T02:43:26.008Z,24.08
2022-12-14T02:46:43.268Z,27.60
2022-12-14T02:50:10.034Z,24.42
2022-12-14T02:53:23.486Z,26.88
2022-12-14T02:56:36.699Z,29.63
2022-12-14T02:59:40.305Z,27.40
2022-12-14T03:02:47.814Z,24.63
2022-12-14T03:05:59.270Z,27.67
2022-12-14T03:09:09.113Z,22.95
2022-12-14T03:12:16.206Z,24.00
2022-12-14T03:15:24.326Z,23.55
2022-12-14T03:18:36.992Z,22.02
2022-12-14T03:21:50.511Z,23.40
2022-12-14T03:24:59.531Z,20.23
2022-12-14T03:28:10.050Z,23.40
2022-12-14T03:31:18.601Z,22.65
2022-12-14T03:34:30.717Z,20.83
2022-12-14T03:37:41.333Z,22.55
2022-12-14T03:40:55.599Z,20.60
2022-12-14T03:44:16.501Z,21.42
2022-12-14T03:47:43.566Z,20.60
2022-12-14T03:50:59.587Z,27.58
2022-12-14T03:54:16.017Z,22.10
2022-12-14T03:57:38.714Z,20.60
2022-12-14T04:00:53.115Z,20.63
2022-12-14T04:04:04.798Z,19.08
2022-12-14T04:07:18.642Z,18.77
2022-12-14T04:10:45.516Z,21.70
2022-12-14T04:14:15.508Z,21.95
2022-12-14T04:17:43.301Z,18.73
2022-12-14T04:20:52.810Z,20.23
2022-12-14T04:24:20.885Z,19.63
2022-12-14T04:27:33.043Z,20.65
2022-12-14T04:30:41.228Z,20.65
2022-12-14T04:33:53.935Z,20.58
2022-12-14T04:37:00.895Z,18.98
2022-12-14T04:40:10.337Z,16.58
2022-12-14T04:43:20.593Z,22.75
2022-12-14T04:46:28.893Z,19.23
2022-12-14T04:49:40.043Z,21.00
2022-12-14T04:52:49.229Z,19.55
2022-12-14T04:56:06.855Z,21.33
2022-12-14T04:59:10.687Z,21.60
2022-12-14T05:02:32.756Z,19.45
2022-12-14T05:05:45.262Z,20.50
2022-12-14T05:09:14.075Z,18.52
2022-12-14T05:12:26.942Z,23.35
2022-12-14T05:15:36.019Z,19.77
2022-12-14T05:18:39.346Z,21.35
2022-12-14T05:21:48.528Z,22.23
2022-12-14T05:24:51.638Z,24.60
2022-12-14T05:27:56.028Z,23.07
2022-12-14T05:30:59.076Z,26.27
2022-12-14T05:34:02.096Z,22.90
2022-12-14T05:37:05.137Z,26.00
2022-12-14T05:40:10.546Z,21.80
2022-12-14T05:43:14.985Z,24.65
2022-12-14T05:46:18.353Z,22.27
2022-12-14T05:49:21.413Z,22.30
2022-12-14T05:52:26.772Z,24.38
2022-12-14T05:55:29.875Z,26.45
2022-12-14T05:58:35.843Z,22.20
2022-12-14T06:01:38.876Z,22.13
2022-12-14T06:04:41.893Z,23.98
2022-12-14T06:07:44.947Z,27.77
2022-12-14T06:10:47.987Z,22.50
2022-12-14T06:13:52.875Z,24.98
2022-12-14T06:16:55.908Z,29.50
2022-12-14T06:19:58.886Z,23.20
2022-12-14T06:23:01.958Z,21.67
2022-12-14T06:26:05.226Z,23.80
2022-12-14T06:29:16.519Z,24.73
2022-12-14T06:32:19.524Z,25.08
2022-12-14T06:35:22.465Z,23.23
2022-12-14T06:38:25.427Z,29.55
2022-12-14T06:41:28.423Z,24.60
2022-12-14T06:44:32.774Z,24.75
2022-12-14T06:47:35.950Z,24.42
2022-12-14T06:50:39.235Z,24.20
2022-12-14T06:53:42.284Z,22.13
2022-12-14T06:56:47.796Z,22.40
2022-12-14T06:59:52.261Z,21.25
2022-12-14T07:02:55.611Z,27.35
2022-12-14T07:05:59.799Z,24.52
2022-12-14T07:09:05.259Z,28.63
2022-12-14T07:12:08.564Z,25.17
2022-12-14T07:15:13.213Z,21.95
2022-12-14T07:18:16.168Z,22.92
2022-12-14T07:21:21.345Z,25.75
2022-12-14T07:24:24.270Z,23.40
2022-12-14T07:27:27.326Z,20.48
2022-12-14T07:30:31.715Z,23.52
2022-12-14T07:33:35.785Z,24.05
2022-12-14T07:39:42.360Z,25.05
2022-12-14T07:42:49.336Z,20.00
2022-12-14T07:45:53.741Z,26.52
2022-12-14T07:48:59.216Z,22.50
2022-12-14T07:52:02.271Z,22.88
2022-12-14T07:55:06.241Z,18.27
2022-12-14T08:01:16.640Z,23.17
2022-12-14T08:04:21.003Z,18.00
2022-12-14T08:07:24.435Z,20.58
2022-12-14T08:10:27.700Z,22.42
2022-12-14T08:13:31.750Z,19.40
2022-12-14T08:16:36.683Z,20.63
2022-12-14T08:19:39.729Z,21.65
2022-12-14T08:22:42.769Z,20.52
2022-12-14T08:25:46.131Z,21.38
2022-12-14T08:28:49.481Z,18.00
2022-12-14T08:31:56.678Z,17.70
2022-12-14T08:34:59.685Z,15.85
2022-12-14T08:38:02.886Z,16.83
2022-12-14T08:41:07.993Z,17.43
2022-12-14T08:44:12.972Z,17.60
2022-12-14T08:47:17.387Z,15.73
2022-12-14T08:50:20.471Z,24.63
2022-12-14T08:53:23.628Z,17.20
2022-12-14T08:56:28.866Z,20.63
2022-12-14T09:00:00.097Z,17.80
2022-12-14T09:02:56.243Z,25.92
2022-12-14T09:06:04.520Z,19.35
2022-12-14T09:09:15.585Z,16.20
2022-12-14T09:12:19.280Z,15.90
2022-12-14T09:15:22.394Z,18.10
2022-12-14T09:18:27.628Z,19.98
2022-12-14T09:21:31.595Z,16.88
2022-12-14T09:24:34.836Z,18.45
2022-12-14T09:27:37.871Z,19.27
2022-12-14T09:30:40.845Z,16.33
2022-12-14T09:33:45.168Z,19.50
2022-12-14T09:36:48.392Z,17.85
2022-12-14T09:39:51.337Z,19.97
2022-12-14T09:43:03.473Z,15.23
2022-12-14T09:46:31.495Z,22.05
2022-12-14T09:49:43.209Z,15.30
2022-12-14T09:52:51.470Z,15.68
2022-12-14T09:55:57.840Z,18.45
2022-12-14T09:59:03.734Z,19.33
2022-12-14T10:02:36.995Z,18.08
2022-12-14T10:06:10.843Z,18.60
2022-12-14T10:09:23.493Z,16.67
2022-12-14T10:12:45.708Z,17.95
2022-12-14T10:16:04.962Z,16.88
2022-12-14T10:19:27.542Z,18.52
2022-12-14T10:22:39.844Z,20.98
2022-12-14T10:25:46.877Z,20.15
2022-12-14T10:29:01.545Z,18.50
2022-12-14T10:32:20.076Z,19.08
2022-12-14T10:35:32.796Z,17.30
2022-12-14T10:38:50.529Z,16.73
2022-12-14T10:42:03.907Z,17.50
2022-12-14T10:45:40.267Z,16.55
2022-12-14T10:48:54.839Z,17.63
2022-12-14T10:52:04.433Z,18.27
2022-12-14T10:55:17.471Z,19.40
2022-12-14T10:58:20.493Z,18.52
2022-12-14T11:01:23.536Z,18.30
2022-12-14T11:04:34.643Z,17.88
2022-12-14T11:07:42.913Z,21.60
2022-12-14T11:10:47.332Z,17.90
2022-12-14T11:13:53.566Z,22.63
2022-12-14T11:16:56.884Z,17.35
2022-12-14T11:20:17.768Z,25.80
2022-12-14T11:23:25.887Z,22.15
2022-12-14T11:26:36.345Z,20.10
2022-12-14T11:29:41.072Z,20.63
2022-12-14T11:32:49.288Z,20.38
2022-12-14T11:35:53.501Z,20.10
2022-12-14T11:38:57.784Z,21.42
2022-12-14T11:42:04.765Z,19.55
2022-12-14T11:45:31.746Z,22.50
2022-12-14T11:48:38.370Z,19.42
2022-12-14T11:52:03.702Z,21.02
2022-12-14T11:55:14.108Z,14.13
2022-12-14T11:58:23.856Z,16.52
2022-12-14T12:01:28.252Z,17.10
2022-12-14T12:04:31.796Z,15.48
2022-12-14T12:07:39.200Z,17.48
2022-12-14T12:10:50.078Z,17.25
2022-12-14T12:14:01.505Z,21.05
2022-12-14T12:17:20.041Z,22.00
2022-12-14T12:20:35.389Z,17.48
2022-12-14T12:23:44.807Z,16.08
2022-12-14T12:26:52.889Z,20.63
2022-12-14T12:30:09.276Z,19.05
2022-12-14T12:33:27.582Z,15.18
2022-12-14T12:36:34.399Z,18.50
2022-12-14T12:39:43.053Z,16.15
2022-12-14T12:42:50.939Z,18.83
2022-12-14T12:46:00.913Z,14.38
2022-12-14T12:49:13.332Z,17.42
2022-12-14T12:52:24.073Z,15.73
2022-12-14T12:55:29.881Z,16.85
2022-12-14T12:58:36.678Z,13.20
2022-12-14T13:01:48.019Z,15.75
2022-12-14T13:04:54.110Z,17.10
2022-12-14T13:08:01.733Z,18.42
2022-12-14T13:11:31.327Z,13.02
2022-12-14T13:14:42.066Z,15.35
2022-12-14T13:17:51.865Z,15.88
2022-12-14T13:20:57.202Z,15.73
2022-12-14T13:24:00.787Z,17.85
2022-12-14T13:27:56.824Z,13.80
2022-12-14T13:31:18.081Z,16.52
2022-12-14T13:34:41.690Z,15.70
2022-12-14T13:38:12.709Z,20.02
2022-12-14T13:41:32.002Z,13.27
2022-12-14T13:44:57.204Z,14.80
2022-12-14T13:48:00.426Z,15.95
2022-12-14T13:51:08.280Z,13.70
2022-12-14T13:54:27.557Z,14.52
2022-12-14T13:57:30.750Z,15.43
2022-12-14T14:00:56.442Z,14.60
2022-12-14T14:04:23.052Z,14.05
2022-12-14T14:07:53.097Z,14.13
2022-12-14T14:11:13.918Z,15.43
2022-12-14T14:14:40.792Z,12.55
2022-12-14T14:17:46.925Z,14.73
2022-12-14T14:20:58.756Z,11.98
2022-12-14T14:24:21.358Z,16.30
2022-12-14T14:27:27.471Z,14.25
2022-12-14T14:30:37.561Z,15.85
2022-12-14T14:33:48.843Z,13.77
2022-12-14T14:36:52.846Z,17.60
2022-12-14T14:40:33.474Z,16.05
2022-12-14T14:43:52.735Z,12.43
2022-12-14T14:46:58.437Z,14.88
2022-12-14T14:50:05.492Z,13.30
2022-12-14T14:53:29.030Z,15.15
2022-12-14T14:56:43.164Z,12.70
2022-12-14T15:00:00.861Z,14.73
2022-12-14T15:03:06.448Z,13.18
2022-12-14T15:06:16.203Z,14.75
2022-12-14T15:09:24.675Z,13.57
2022-12-14T15:12:42.220Z,13.75
2022-12-14T15:15:47.493Z,11.70
2022-12-14T15:18:50.554Z,11.95
2022-12-14T15:21:58.163Z,15.25
2022-12-14T15:25:03.165Z,13.13
2022-12-14T15:28:09.202Z,14.02
2022-12-14T15:31:12.403Z,11.20
2022-12-14T15:34:19.061Z,11.60
2022-12-14T15:37:29.882Z,13.85
2022-12-14T15:40:34.244Z,12.00
2022-12-14T15:43:45.686Z,14.43
2022-12-14T15:46:55.459Z,11.98
2022-12-14T15:50:25.345Z,13.15
2022-12-14T15:53:34.157Z,12.30
2022-12-14T15:56:41.384Z,14.02
2022-12-14T15:59:49.319Z,14.05
2022-12-14T16:02:53.420Z,12.13
2022-12-14T16:05:57.796Z,12.38
2022-12-14T16:09:06.889Z,13.77
2022-12-14T16:12:20.274Z,13.15
2022-12-14T16:15:27.746Z,13.30
2022-12-14T16:18:30.751Z,14.40
2022-12-14T16:21:36.390Z,12.82
2022-12-14T16:24:54.694Z,12.10
2022-12-14T16:27:58.125Z,14.98
2022-12-14T16:31:07.082Z,12.68
2022-12-14T16:34:17.076Z,13.52
2022-12-14T16:37:35.650Z,14.65
2022-12-14T16:40:42.162Z,15.10
2022-12-14T16:43:59.872Z,15.98
2022-12-14T16:47:39.359Z,13.85
2022-12-14T16:51:02.925Z,14.25
2022-12-14T16:54:23.126Z,18.88
2022-12-14T16:57:26.257Z,13.57
2022-12-14T17:00:32.632Z,13.13
2022-12-14T17:03:38.630Z,13.68
2022-12-14T17:06:48.428Z,12.77
2022-12-14T17:09:51.769Z,15.18
2022-12-14T17:12:58.743Z,12.23
2022-12-14T17:16:05.848Z,11.98
2022-12-14T17:19:21.292Z,12.73
2022-12-14T17:22:27.747Z,13.18
2022-12-14T17:25:33.252Z,15.48
2022-12-14T17:28:36.441Z,11.65
2022-12-14T17:31:44.579Z,16.97
2022-12-14T17:34:54.615Z,13.13
2022-12-14T17:37:58.374Z,12.38
2022-12-14T17:41:01.838Z,16.00
2022-12-14T17:44:05.374Z,12.95
2022-12-14T17:47:12.435Z,13.30
2022-12-14T17:50:18.935Z,16.30
2022-12-14T17:53:30.401Z,13.38
2022-12-14T17:56:35.082Z,12.85
2022-12-14T17:59:39.881Z,12.40
2022-12-14T18:02:46.558Z,11.43
2022-12-14T18:05:52.169Z,17.90
2022-12-14T18:08:55.159Z,13.45
2022-12-14T18:12:22.076Z,16.35
2022-12-14T18:15:25.584Z,13.07
2022-12-14T18:18:29.479Z,15.20
2022-12-14T18:24:36.960Z,14.70
2022-12-14T18:27:40.012Z,14.15
2022-12-14T18:30:49.615Z,16.38
2022-12-14T18:33:53.755Z,15.95
2022-12-14T18:36:58.153Z,13.52
2022-12-14T18:40:01.170Z,12.77
2022-12-14T18:43:04.745Z,13.35
2022-12-14T18:46:07.807Z,13.52
2022-12-14T18:49:10.816Z,13.40
2022-12-14T18:52:15.154Z,14.07
2022-12-14T18:55:21.429Z,13.95
2022-12-14T18:58:27.601Z,14.00
2022-12-14T19:01:30.896Z,14.77
2022-12-14T19:04:33.960Z,18.58
2022-12-14T19:07:38.370Z,20.10
2022-12-14T19:10:45.348Z,21.00
2022-12-14T19:13:48.354Z,23.08
2022-12-14T19:16:51.297Z,18.13
2022-12-14T19:19:54.434Z,18.77
2022-12-14T19:22:58.866Z,13.37
2022-12-14T19:26:02.358Z,20.45
2022-12-14T19:29:05.343Z,15.30
2022-12-14T19:32:08.441Z,16.75
2022-12-14T19:35:11.493Z,13.27
2022-12-14T19:38:17.433Z,15.47
2022-12-14T19:41:21.339Z,16.15
2022-12-14T19:44:24.368Z,20.20
2022-12-14T19:47:27.457Z,14.40
2022-12-14T19:50:30.402Z,12.20
2022-12-14T19:53:36.173Z,15.13
2022-12-14T19:56:39.337Z,15.15
2022-12-14T19:59:42.796Z,17.70
2022-12-14T20:02:45.952Z,15.43
2022-12-14T20:05:55.986Z,17.98
2022-12-14T20:09:02.107Z,14.90
2022-12-14T20:12:06.014Z,17.08
2022-12-14T20:15:09.681Z,20.27
2022-12-14T20:18:13.462Z,17.50
2022-12-14T20:21:22.078Z,20.33
2022-12-14T20:24:26.942Z,17.65
2022-12-14T20:27:33.800Z,16.92
2022-12-14T20:30:45.386Z,18.30
2022-12-14T20:33:48.674Z,19.77
2022-12-14T20:36:52.332Z,17.07
2022-12-14T20:40:07.064Z,16.05
2022-12-14T20:43:10.210Z,14.98
2022-12-14T20:46:29.066Z,15.60
2022-12-14T20:49:32.810Z,14.05
2022-12-14T20:52:35.923Z,15.73
2022-12-14T20:55:40.266Z,16.70
2022-12-14T20:58:48.128Z,17.17
2022-12-14T21:01:55.893Z,21.00
2022-12-14T21:04:59.648Z,17.67
2022-12-14T21:08:02.671Z,13.90
2022-12-14T21:11:21.096Z,13.40
2022-12-14T21:14:27.469Z,14.57
2022-12-14T21:17:31.843Z,14.45
2022-12-14T21:20:34.986Z,15.55
2022-12-14T21:23:38.059Z,19.13
2022-12-14T21:26:42.980Z,19.93
2022-12-14T21:29:46.429Z,16.45
2022-12-14T21:32:49.424Z,16.45
2022-12-14T21:35:52.487Z,18.30
2022-12-14T21:38:56.370Z,18.60
2022-12-14T21:42:15.271Z,16.20
2022-12-14T21:45:18.813Z,14.30
2022-12-14T21:48:21.909Z,16.48
2022-12-14T21:51:24.822Z,17.43
2022-12-14T21:54:27.993Z,23.20
2022-12-14T21:57:50.830Z,14.60
2022-12-14T22:00:53.991Z,17.10
2022-12-14T22:03:56.947Z,15.27
2022-12-14T22:07:00.977Z,18.60
2022-12-14T22:13:09.748Z,17.17
2022-12-14T22:16:12.730Z,15.57
2022-12-14T22:19:18.006Z,14.55
2022-12-14T22:22:21.034Z,12.77
2022-12-14T22:25:24.023Z,14.50
2022-12-14T22:28:28.344Z,12.27
2022-12-14T22:31:31.456Z,13.02
2022-12-14T22:34:34.514Z,13.20
2022-12-14T22:37:37.457Z,14.40
2022-12-14T22:40:40.883Z,11.48
2022-12-14T22:43:45.937Z,11.63
2022-12-14T22:46:49.864Z,14.90
2022-12-14T22:49:52.841Z,11.15
2022-12-14T22:52:56.056Z,12.13
2022-12-14T22:56:07.944Z,12.60
2022-12-14T22:59:16.888Z,12.23
2022-12-14T23:02:20.198Z,10.18
2022-12-14T23:05:23.410Z,11.88
2022-12-14T23:08:26.548Z,13.23
2022-12-14T23:11:47.196Z,9.10
2022-12-14T23:15:09.182Z,13.18
2022-12-14T23:18:29.895Z,13.93
2022-12-14T23:21:50.586Z,14.98
2022-12-14T23:25:11.378Z,12.43
2022-12-14T23:28:32.188Z,13.45
2022-12-14T23:31:54.255Z,12.85
2022-12-14T23:35:14.947Z,12.63
2022-12-14T23:38:35.643Z,14.43
2022-12-14T23:41:56.715Z,17.27
2022-12-14T23:45:17.683Z,13.35
2022-12-14T23:48:39.793Z,19.25
2022-12-14T23:52:00.616Z,13.02
2022-12-14T23:55:21.512Z,15.82
2022-12-14T23:58:42.336Z,14.93
